Time;durP1;ratioP1;P1;durP2;ratioP2;P2;SDS_P1;SDS_P2;PMS_P1;PMS_P2;Temp;Humidity;BMP_temperature;BMP_pressure;BME280_temperature;BME280_humidity;BME280_pressure;Samples;Min_cycle;Max_cycle;Signal;HPM_P1;HPM_P2
2021/05/22 00:00:53;;;;;;;;;;;;;;;19.11;43.48;100590.55;1737302;81;20166;-76
2021/05/22 00:03:19;;;;;;;;;;;;;;;19.07;43.48;100589.30;1737483;81;20683;-76
2021/05/22 00:05:45;;;;;;;;;;;;;;;19.04;43.49;100596.53;1737358;82;20658;-76
2021/05/22 00:08:13;;;;;;;;;;;;;;;19.00;43.55;100602.07;1737311;81;20583;-76
2021/05/22 00:10:39;;;;;;;;;;;;;;;19.01;43.63;100601.02;1737384;81;20170;-76
2021/05/22 00:13:06;;;;;;;;;;;;;;;19.01;43.67;100603.73;1737215;81;20158;-76
2021/05/22 00:15:34;;;;;;;;;;;;;;;19.01;43.62;100596.42;1737370;81;20178;-76
2021/05/22 00:18:00;;;;;;;;;;;;;;;19.02;43.59;100595.89;1737380;81;20179;-76
2021/05/22 00:20:26;;;;;;;;;;;;;;;19.00;43.51;100596.64;1737457;81;20269;-76
2021/05/22 00:22:52;;;;;;;;;;;;;;;18.94;43.62;100589.31;1737228;81;20245;-76
2021/05/22 00:25:17;;;;;;;;;;;;;;;18.92;43.66;100598.20;1737383;81;20249;-76
2021/05/22 00:27:43;;;;;;;;;;;;;;;18.93;43.67;100600.70;1737421;82;20221;-76
2021/05/22 00:30:11;;;;;;;;;;;;;;;18.97;43.61;100606.02;1737483;82;20197;-76
2021/05/22 00:32:37;;;;;;;;;;;;;;;19.01;43.49;100601.02;1723140;82;20248;-76
2021/05/22 00:35:04;;;;;;;;;;;;;;;19.05;43.35;100599.55;1722532;82;20194;-76
2021/05/22 00:37:30;;;;;;;;;;;;;;;19.07;43.33;100593.37;1737868;81;20520;-76
2021/05/22 00:39:56;;;;;;;;;;;;;;;19.10;43.25;100589.42;1722530;81;20218;-76
2021/05/22 00:42:23;;;;;;;;;;;;;;;19.07;43.21;100589.30;1717421;81;20266;-76
2021/05/22 00:45:10;;;;;;;;;;;;;;;19.07;43.35;100597.45;1728108;82;20296;-76
2021/05/22 00:47:39;;;;;;;;;;;;;;;19.09;43.43;100594.55;1712771;82;20208;-76
2021/05/22 00:50:09;;;;;;;;;;;;;;;19.07;43.35;100586.59;1723644;82;20250;-76
2021/05/22 00:52:35;;;;;;;;;;;;;;;19.06;43.19;100591.72;1734186;82;20249;-76
2021/05/22 00:55:04;;;;;;;;;;;;;;;19.05;43.14;100591.94;1723027;82;20252;-76
2021/05/22 00:57:31;;;;;;;;;;;;;;;19.01;43.27;100593.70;1717892;82;20588;-76
2021/05/22 00:59:57;;;;;;;;;;;;;;;19.00;43.23;100595.28;1717951;82;20246;-76
2021/05/22 01:02:24;;;;;;;;;;;;;;;18.98;43.16;100600.07;1730632;81;20188;-75
2021/05/22 01:04:51;;;;;;;;;;;;;;;18.94;43.26;100601.53;1730439;82;20200;-75
2021/05/22 01:07:17;;;;;;;;;;;;;;;18.87;43.25;100604.26;1718502;81;20624;-75
2021/05/22 01:09:48;;;;;;;;;;;;;;;18.81;43.26;100604.27;1715308;81;20253;-76
2021/05/22 01:12:14;;;;;;;;;;;;;;;18.76;43.37;100602.19;1721401;82;20249;-76
2021/05/22 01:14:48;;;;;;;;;;;;;;;18.70;43.50;100605.19;1715255;82;20252;-76
2021/05/22 01:17:16;;;;;;;;;;;;;;;18.66;43.54;100601.19;1716261;82;20269;-76
2021/05/22 01:19:49;;;;;;;;;;;;;;;18.63;43.60;100605.69;1736412;82;20245;-76
2021/05/22 01:22:15;;;;;;;;;;;;;;;18.61;43.76;100600.14;1730317;83;20257;-75
2021/05/22 01:24:51;;;;;;;;;;;;;;;18.57;43.79;100603.78;1732072;82;20258;-76
2021/05/22 01:27:17;;;;;;;;;;;;;;;18.58;43.87;100606.00;1732830;82;20542;-75
2021/05/22 01:29:43;;;;;;;;;;;;;;;18.61;43.97;100606.40;1732583;83;20177;-75
2021/05/22 01:32:09;;;;;;;;;;;;;;;18.59;43.90;100609.86;1733000;82;20234;-76
2021/05/22 01:34:36;;;;;;;;;;;;;;;18.59;43.88;100613.09;1732972;82;20277;-76
2021/05/22 01:37:02;;;;;;;;;;;;;;;18.59;43.90;100618.52;1733535;82;20154;-77
2021/05/22 01:39:28;;;;;;;;;;;;;;;18.58;43.95;100613.62;1732635;82;20186;-78
2021/05/22 01:41:54;;;;;;;;;;;;;;;18.56;43.99;100610.26;1732205;83;20205;-77
2021/05/22 01:44:22;;;;;;;;;;;;;;;18.55;43.98;100609.95;1733218;82;20182;-76
2021/05/22 01:46:48;;;;;;;;;;;;;;;18.56;43.92;100615.69;1733060;83;20254;-76
2021/05/22 01:49:14;;;;;;;;;;;;;;;18.57;43.87;100621.41;1731950;82;20285;-76
2021/05/22 01:51:40;;;;;;;;;;;;;;;18.60;43.86;100625.08;1732218;83;20265;-76
2021/05/22 01:54:07;;;;;;;;;;;;;;;18.61;43.83;100625.39;1732154;82;20242;-76
2021/05/22 01:56:34;;;;;;;;;;;;;;;18.60;43.88;100626.44;1732502;82;20262;-78
2021/05/22 01:59:02;;;;;;;;;;;;;;;18.54;43.88;100626.45;1731322;81;20254;-75
2021/05/22 02:01:29;;;;;;;;;;;;;;;18.45;43.94;100626.63;1708768;83;20266;-78
2021/05/22 02:03:57;;;;;;;;;;;;;;;18.38;44.00;100627.13;1733633;82;20163;-77
2021/05/22 02:06:28;;;;;;;;;;;;;;;18.32;44.12;100632.02;1733872;83;20166;-77
2021/05/22 02:08:56;;;;;;;;;;;;;;;18.24;44.10;100632.20;1733999;83;20222;-77
2021/05/22 02:11:23;;;;;;;;;;;;;;;18.14;44.31;100635.83;1733876;82;20178;-77
2021/05/22 02:13:49;;;;;;;;;;;;;;;18.08;44.46;100637.48;1733546;83;20242;-77
2021/05/22 02:16:17;;;;;;;;;;;;;;;18.05;44.61;100643.30;1733944;82;20166;-77
2021/05/22 02:18:42;;;;;;;;;;;;;;;17.98;44.73;100648.67;1733914;82;20139;-75
2021/05/22 02:21:09;;;;;;;;;;;;;;;18.00;44.85;100648.49;1733521;82;20201;-75
2021/05/22 02:23:37;;;;;;;;;;;;;;;18.03;44.84;100648.59;1703985;83;20209;-75
2021/05/22 02:26:03;;;;;;;;;;;;;;;18.06;44.78;100655.80;1704333;82;20203;-78
2021/05/22 02:28:31;;;;;;;;;;;;;;;18.07;44.77;100661.53;1703422;83;20260;-75
2021/05/22 02:30:57;;;;;;;;;;;;;;;18.09;44.72;100660.00;1704477;83;20180;-76
2021/05/22 02:33:23;;;;;;;;;;;;;;;18.10;44.73;100658.43;1704416;83;20188;-76
2021/05/22 02:35:51;;;;;;;;;;;;;;;18.06;44.70;100664.45;1705101;83;20164;-76
2021/05/22 02:38:22;;;;;;;;;;;;;;;18.01;44.81;100671.84;1705031;83;20165;-76
2021/05/22 02:40:49;;;;;;;;;;;;;;;17.98;44.98;100677.66;1704952;84;20545;-77
2021/05/22 02:43:15;;;;;;;;;;;;;;;17.97;44.99;100671.92;1704588;83;20153;-77
2021/05/22 02:45:43;;;;;;;;;;;;;;;17.96;45.00;100672.45;1682452;84;20244;-77
2021/05/22 02:48:12;;;;;;;;;;;;;;;17.98;45.06;100677.13;1704574;83;20227;-77
2021/05/22 02:50:38;;;;;;;;;;;;;;;18.03;45.04;100684.66;1704421;83;20593;-77
2021/05/22 02:53:05;;;;;;;;;;;;;;;18.08;44.91;100690.86;1704090;84;20204;-77
2021/05/22 02:55:31;;;;;;;;;;;;;;;18.10;44.97;100688.77;1704506;83;20544;-77
2021/05/22 02:57:57;;;;;;;;;;;;;;;18.10;44.95;100686.89;1682724;84;20196;-77
2021/05/22 03:00:23;;;;;;;;;;;;;;;18.12;44.98;100690.75;1704496;83;20165;-77
2021/05/22 03:02:49;;;;;;;;;;;;;;;18.14;44.99;100697.66;1704576;84;20251;-77
2021/05/22 03:05:15;;;;;;;;;;;;;;;18.17;45.02;100699.97;1704383;83;20233;-77
2021/05/22 03:07:42;;;;;;;;;;;;;;;18.19;45.08;100698.41;1704647;83;20145;-77
2021/05/22 03:10:08;;;;;;;;;;;;;;;18.23;45.08;100696.44;1704743;83;20204;-77
2021/05/22 03:12:36;;;;;;;;;;;;;;;18.30;44.99;100699.69;1704583;83;20161;-77
2021/05/22 03:15:06;;;;;;;;;;;;;;;18.32;44.97;100707.95;1704376;84;20249;-75
2021/05/22 03:17:32;;;;;;;;;;;;;;;18.32;44.92;100709.31;1704572;83;20248;-77
2021/05/22 03:19:58;;;;;;;;;;;;;;;18.30;44.96;100715.95;1704525;83;20173;-75
2021/05/22 03:22:24;;;;;;;;;;;;;;;18.22;45.08;100720.53;1704387;83;20682;-75
2021/05/22 03:24:50;;;;;;;;;;;;;;;18.23;45.16;100728.15;1704321;84;20236;-75
2021/05/22 03:27:16;;;;;;;;;;;;;;;18.24;45.15;100724.39;1704376;83;20208;-76
2021/05/22 03:29:42;;;;;;;;;;;;;;;18.25;45.22;100725.53;1704497;83;20259;-76
2021/05/22 03:32:08;;;;;;;;;;;;;;;18.26;45.31;100718.27;1704343;83;20184;-76
2021/05/22 03:34:35;;;;;;;;;;;;;;;18.32;45.34;100720.16;1702909;84;20256;-76
2021/05/22 03:37:01;;;;;;;;;;;;;;;18.35;45.33;100718.89;1702788;84;20311;-75
2021/05/22 03:39:27;;;;;;;;;;;;;;;18.41;45.32;100714.87;1702733;83;20272;-76
2021/05/22 03:41:53;;;;;;;;;;;;;;;18.46;45.40;100717.80;1724558;82;20246;-76
2021/05/22 03:44:19;;;;;;;;;;;;;;;18.51;45.37;100719.91;1735749;81;20213;-76
2021/05/22 03:46:46;;;;;;;;;;;;;;;18.57;45.38;100724.50;1735550;81;20278;-77
2021/05/22 03:49:12;;;;;;;;;;;;;;;18.61;45.30;100726.30;1735662;81;20578;-76
2021/05/22 03:51:38;;;;;;;;;;;;;;;18.65;45.29;100728.39;1735533;82;20277;-75
2021/05/22 03:54:04;;;;;;;;;;;;;;;18.67;45.28;100733.11;1735514;81;20254;-75
2021/05/22 03:56:30;;;;;;;;;;;;;;;18.67;45.20;100730.92;1749451;81;20543;-75
2021/05/22 03:58:56;;;;;;;;;;;;;;;18.67;45.24;100733.11;1770338;81;20206;-76
2021/05/22 04:01:23;;;;;;;;;;;;;;;18.68;45.25;100732.59;1737157;81;20273;-75
2021/05/22 04:03:49;;;;;;;;;;;;;;;18.69;45.35;100732.41;1735537;82;20177;-75
2021/05/22 04:06:15;;;;;;;;;;;;;;;18.75;45.48;100734.30;1735336;82;20244;-75
2021/05/22 04:08:42;;;;;;;;;;;;;;;18.81;45.43;100738.61;1735206;82;20285;-76
2021/05/22 04:11:08;;;;;;;;;;;;;;;18.89;45.56;100741.11;1734498;82;20571;-76
2021/05/22 04:13:34;;;;;;;;;;;;;;;18.96;45.52;100740.61;1711414;82;20261;-76
2021/05/22 04:16:00;;;;;;;;;;;;;;;19.05;45.45;100743.45;1733729;82;20281;-76
2021/05/22 04:18:26;;;;;;;;;;;;;;;19.15;45.35;100744.39;1733512;82;20613;-76
2021/05/22 04:20:52;;;;;;;;;;;;;;;19.21;45.34;100745.77;1733710;82;20169;-76
2021/05/22 04:23:19;;;;;;;;;;;;;;;19.33;45.35;100747.86;1733802;82;20265;-76
2021/05/22 04:25:46;;;;;;;;;;;;;;;19.43;45.26;100750.98;1733877;82;20561;-76
2021/05/22 04:28:12;;;;;;;;;;;;;;;19.55;45.16;100763.43;1734093;82;20174;-76
2021/05/22 04:30:37;;;;;;;;;;;;;;;19.63;44.99;100762.73;1734465;82;20265;-76
2021/05/22 04:33:04;;;;;;;;;;;;;;;19.70;44.87;100766.78;1735821;82;20284;-76
2021/05/22 04:35:30;;;;;;;;;;;;;;;19.78;44.79;100767.09;1735851;82;20242;-76
2021/05/22 04:37:56;;;;;;;;;;;;;;;19.86;44.64;100775.87;1735816;82;20218;-76
2021/05/22 04:40:22;;;;;;;;;;;;;;;19.94;44.23;100778.87;1723561;82;20260;-76
2021/05/22 04:42:48;;;;;;;;;;;;;;;19.99;44.11;100775.85;1702810;83;20255;-76
2021/05/22 04:45:14;;;;;;;;;;;;;;;20.09;43.86;100782.20;1702793;84;20195;-77
2021/05/22 04:47:40;;;;;;;;;;;;;;;20.19;43.67;100783.95;1702719;84;20255;-77
2021/05/22 04:50:08;;;;;;;;;;;;;;;20.28;43.45;100782.67;1702628;83;20180;-77
2021/05/22 04:52:34;;;;;;;;;;;;;;;20.33;43.46;100783.38;1702837;83;20256;-77
2021/05/22 04:55:00;;;;;;;;;;;;;;;20.39;43.00;100786.59;1713711;81;20275;-77
2021/05/22 04:57:26;;;;;;;;;;;;;;;20.47;42.74;100790.48;1737295;81;20213;-77
2021/05/22 04:59:53;;;;;;;;;;;;;;;20.55;42.71;100791.30;1736286;82;20589;-77
2021/05/22 05:02:19;;;;;;;;;;;;;;;20.62;42.58;100783.43;1737403;82;20261;-77
2021/05/22 05:04:45;;;;;;;;;;;;;;;20.72;42.48;100791.12;1737484;82;20158;-77
2021/05/22 05:07:11;;;;;;;;;;;;;;;20.77;42.12;100789.41;1736470;82;20194;-77
2021/05/22 05:09:37;;;;;;;;;;;;;;;20.87;42.22;100793.55;1736901;82;20178;-77
2021/05/22 05:12:04;;;;;;;;;;;;;;;20.92;41.73;100791.84;1721549;82;20196;-77
2021/05/22 05:14:30;;;;;;;;;;;;;;;20.99;40.96;100790.46;1718043;82;20210;-77
2021/05/22 05:16:57;;;;;;;;;;;;;;;21.05;40.95;100792.30;1735355;82;20261;-77
2021/05/22 05:19:24;;;;;;;;;;;;;;;21.14;40.96;100796.43;1734444;81;20206;-77
2021/05/22 05:21:52;;;;;;;;;;;;;;;21.21;40.71;100794.52;1707548;83;20253;-77
2021/05/22 05:24:18;;;;;;;;;;;;;;;21.23;40.29;100788.83;1707931;83;20842;-77
2021/05/22 05:26:44;;;;;;;;;;;;;;;21.25;40.34;100794.35;1729576;82;20205;-76
2021/05/22 05:29:10;;;;;;;;;;;;;;;21.29;40.21;100801.03;1737800;81;20214;-76
2021/05/22 05:31:37;;;;;;;;;;;;;;;21.32;39.86;100795.72;1738189;81;20280;-76
2021/05/22 05:34:03;;;;;;;;;;;;;;;21.37;39.62;100799.14;1737116;82;20229;-76
2021/05/22 05:36:39;;;;;;;;;;;;;;;21.43;39.76;100794.16;1736981;81;20273;-76
2021/05/22 05:41:50;;;;;;;;;;;;;;;21.55;39.29;100799.20;1699586;84;20212;-76
2021/05/22 05:44:29;;;;;;;;;;;;;;;;;;;;;
2021/05/22 05:46:59;;;;;;;;;;;;;;;21.63;38.95;100794.84;1684092;84;20188;-76
2021/05/22 05:49:28;;;;;;;;;;;;;;;21.71;38.57;100797.30;1706696;84;20688;-77
2021/05/22 05:51:58;;;;;;;;;;;;;;;21.81;38.44;100793.23;1704585;83;20263;-77
2021/05/22 05:54:26;;;;;;;;;;;;;;;21.89;38.75;100797.02;1698733;84;20256;-76
2021/05/22 05:56:52;;;;;;;;;;;;;;;22.00;39.63;100793.56;1723925;82;20237;-76
2021/05/22 05:59:18;;;;;;;;;;;;;;;22.14;39.70;100796.48;1734747;82;20254;-76
2021/05/22 06:01:44;;;;;;;;;;;;;;;22.33;39.27;100793.23;1736633;81;20246;-76
2021/05/22 06:04:10;;;;;;;;;;;;;;;22.40;39.48;100795.36;1735411;82;20261;-76
2021/05/22 06:06:37;;;;;;;;;;;;;;;22.55;39.10;100785.41;1735108;82;20193;-76
2021/05/22 06:09:05;;;;;;;;;;;;;;;22.72;39.13;100785.09;1735530;81;20245;-76
2021/05/22 06:11:37;;;;;;;;;;;;;;;22.91;39.10;100783.18;1733962;81;20575;-76
2021/05/22 06:14:10;;;;;;;;;;;;;;;23.10;39.07;100781.22;1735829;82;20238;-76
2021/05/22 06:16:36;;;;;;;;;;;;;;;23.33;38.25;100791.38;1736379;81;20265;-77
2021/05/22 06:19:03;;;;;;;;;;;;;;;23.56;38.13;100783.75;1735888;82;20249;-77
2021/05/22 06:21:28;;;;;;;;;;;;;;;23.81;37.49;100780.02;1734517;82;20250;-77
2021/05/22 06:23:55;;;;;;;;;;;;;;;24.03;36.86;100787.38;1736076;82;20186;-77
2021/05/22 06:26:21;;;;;;;;;;;;;;;24.28;36.53;100791.20;1736823;81;20193;-77
2021/05/22 06:28:47;;;;;;;;;;;;;;;24.53;36.37;100795.60;1769493;80;20235;-79
2021/05/22 06:31:13;;;;;;;;;;;;;;;24.76;36.14;100790.05;1768941;81;20235;-77
2021/05/22 06:33:39;;;;;;;;;;;;;;;25.00;35.19;100790.77;1770102;80;20610;-77
2021/05/22 06:36:06;;;;;;;;;;;;;;;25.21;33.30;100787.08;1769890;80;20181;-76
2021/05/22 06:38:33;;;;;;;;;;;;;;;25.48;32.89;100789.98;1747685;81;20243;-77
2021/05/22 06:40:59;;;;;;;;;;;;;;;25.70;31.88;100784.58;1754187;80;20241;-76
2021/05/22 06:43:25;;;;;;;;;;;;;;;25.96;30.70;100791.33;1742821;82;20276;-76
2021/05/22 06:48:24;;;;;;;;;;;;;;;26.39;30.72;100792.45;1671392;82;20262;-76
2021/05/22 06:50:51;;;;;;;;;;;;;;;26.64;30.67;100794.73;1732069;80;20265;-75
2021/05/22 06:53:17;;;;;;;;;;;;;;;26.83;30.66;100793.30;1719618;80;20422;-76
2021/05/22 06:55:44;;;;;;;;;;;;;;;27.05;28.21;100796.02;1704882;84;20264;-76
2021/05/22 06:58:10;;;;;;;;;;;;;;;27.26;27.55;100788.30;1729547;82;20774;-76
2021/05/22 07:00:37;;;;;;;;;;;;;;;27.47;28.41;100782.95;1734660;82;20225;-76
2021/05/22 07:03:03;;;;;;;;;;;;;;;27.68;28.60;100790.84;1735143;82;20274;-76
2021/05/22 07:05:29;;;;;;;;;;;;;;;27.90;28.90;100791.58;1735418;82;20209;-76
2021/05/22 07:07:56;;;;;;;;;;;;;;;28.14;29.06;100801.63;1737789;81;20366;-77
2021/05/22 07:10:24;;;;;;;;;;;;;;;28.32;27.84;100797.59;1742613;81;20289;-77
2021/05/22 07:12:50;;;;;;;;;;;;;;;28.49;26.90;100801.58;1698316;82;20209;-77
2021/05/22 07:15:16;;;;;;;;;;;;;;;28.64;27.81;100807.69;1725649;82;20262;-77
2021/05/22 07:17:42;;;;;;;;;;;;;;;28.74;28.16;100815.44;1735437;81;20802;-77
2021/05/22 07:20:09;;;;;;;;;;;;;;;28.83;28.21;100817.95;1727998;81;20259;-77
2021/05/22 07:22:36;;;;;;;;;;;;;;;28.92;28.43;100809.16;1721925;80;20249;-77
2021/05/22 07:25:03;;;;;;;;;;;;;;;29.00;27.96;100801.21;1720916;82;20259;-77
2021/05/22 07:27:34;;;;;;;;;;;;;;;29.09;28.07;100809.78;1724585;82;20263;-76
2021/05/22 07:29:58;;;;;;;;;;;;;;;29.16;27.06;100807.60;1705025;82;20283;-77
2021/05/22 07:32:24;;;;;;;;;;;;;;;29.21;26.03;100806.78;1728439;82;20201;-77
2021/05/22 07:34:50;;;;;;;;;;;;;;;29.23;25.07;100808.70;1718792;82;20252;-76
2021/05/22 07:37:16;;;;;;;;;;;;;;;29.23;23.98;100808.70;1719842;81;20256;-76
2021/05/22 07:39:42;;;;;;;;;;;;;;;29.25;24.46;100810.09;1747407;80;20284;-77
2021/05/22 07:42:08;;;;;;;;;;;;;;;29.30;23.65;100810.10;1726999;82;20224;-76
2021/05/22 07:44:34;;;;;;;;;;;;;;;29.30;22.55;100807.34;1719012;82;20726;-76
2021/05/22 07:47:00;;;;;;;;;;;;;;;29.30;22.40;100805.96;1730756;82;20545;-76
2021/05/22 07:49:37;;;;;;;;;;;;;;;29.27;21.59;100800.98;1725196;82;20273;-76
2021/05/22 07:51:54;;;;;;;;;;;;;;;29.22;20.12;100800.16;1724153;81;20309;-77
2021/05/22 07:54:20;;;;;;;;;;;;;;;29.06;20.41;100795.15;1707385;82;20279;-76
2021/05/22 07:56:46;;;;;;;;;;;;;;;28.89;20.00;100796.76;1717260;81;20684;-76
2021/05/22 07:59:13;;;;;;;;;;;;;;;28.71;20.33;100802.22;1726961;81;20408;-76
2021/05/22 08:01:39;;;;;;;;;;;;;;;28.58;21.30;100797.76;1727726;81;20265;-76
2021/05/22 08:04:05;;;;;;;;;;;;;;;28.58;22.13;100794.45;1717807;81;20148;-76
2021/05/22 08:06:31;;;;;;;;;;;;;;;28.68;23.42;100793.10;1732081;82;20214;-75
2021/05/22 08:09:05;;;;;;;;;;;;;;;28.76;23.38;100795.89;1730011;81;20657;-76
2021/05/22 08:11:26;;;;;;;;;;;;;;;28.80;24.38;100789.56;1703936;82;20274;-76
2021/05/22 08:13:53;;;;;;;;;;;;;;;28.87;25.30;100786.53;1720122;81;20152;-76
2021/05/22 08:16:19;;;;;;;;;;;;;;;28.97;23.60;100785.20;1733090;81;20252;-75
2021/05/22 08:18:45;;;;;;;;;;;;;;;29.03;22.00;100784.69;1728288;81;20170;-76
2021/05/22 08:21:11;;;;;;;;;;;;;;;29.02;21.14;100780.24;1703533;82;20259;-75
2021/05/22 08:23:37;;;;;;;;;;;;;;;28.96;20.69;100784.93;1722922;82;20138;-77
2021/05/22 08:26:03;;;;;;;;;;;;;;;28.87;21.37;100788.47;1724261;81;20288;-77
2021/05/22 08:28:29;;;;;;;;;;;;;;;28.89;21.26;100787.62;1709637;82;20217;-76
2021/05/22 08:30:58;;;;;;;;;;;;;;;28.91;21.96;100790.96;1728077;81;20178;-77
2021/05/22 08:33:23;;;;;;;;;;;;;;;28.96;22.08;100792.38;1718295;82;20198;-77
2021/05/22 08:35:49;;;;;;;;;;;;;;;29.00;21.98;100790.73;1711407;81;20582;-77
2021/05/22 08:38:16;;;;;;;;;;;;;;;29.01;21.92;100784.11;1726884;81;20188;-77
2021/05/22 08:40:42;;;;;;;;;;;;;;;29.00;20.72;100783.28;1722863;80;20173;-76
2021/05/22 08:43:08;;;;;;;;;;;;;;;28.94;19.71;100783.53;1733956;81;20206;-78
2021/05/22 08:45:36;;;;;;;;;;;;;;;28.89;20.70;100787.62;1731835;81;20233;-77
2021/05/22 08:48:02;;;;;;;;;;;;;;;28.85;21.01;100786.55;1726746;81;20703;-77
2021/05/22 08:50:29;;;;;;;;;;;;;;;28.79;20.83;100780.98;1724629;82;20263;-77
2021/05/22 08:52:55;;;;;;;;;;;;;;;28.73;19.82;100788.98;1729904;81;20237;-77
2021/05/22 08:55:22;;;;;;;;;;;;;;;28.65;20.00;100788.67;1734024;81;20266;-77
2021/05/22 08:57:49;;;;;;;;;;;;;;;28.58;19.88;100779.29;1728918;80;20244;-77
2021/05/22 09:00:16;;;;;;;;;;;;;;;28.55;20.26;100779.27;1723636;81;20318;-77
2021/05/22 09:02:43;;;;;;;;;;;;;;;28.54;20.49;100782.30;1715230;82;20138;-76
2021/05/22 09:05:28;;;;;;;;;;;;;;;28.51;20.46;100784.21;1733640;82;20154;-77
2021/05/22 09:07:55;;;;;;;;;;;;;;;28.48;19.78;100780.61;1720062;81;20281;-77
2021/05/22 09:10:26;;;;;;;;;;;;;;;28.43;19.86;100779.21;1719414;82;20537;-77
2021/05/22 09:12:55;;;;;;;;;;;;;;;28.42;20.04;100780.31;1734279;79;20277;-77
2021/05/22 09:15:22;;;;;;;;;;;;;;;28.37;19.48;100778.36;1726322;82;20249;-77
2021/05/22 09:17:54;;;;;;;;;;;;;;;28.27;19.35;100773.61;1728481;80;20198;-77
2021/05/22 09:20:34;;;;;;;;;;;;;;;28.21;19.01;100774.69;1727416;81;20174;-77
2021/05/22 09:23:12;;;;;;;;;;;;;;;28.14;19.32;100774.64;1693486;84;20200;-76
2021/05/22 09:25:40;;;;;;;;;;;;;;;28.06;19.01;100775.97;1719043;81;20172;-76
2021/05/22 09:28:07;;;;;;;;;;;;;;;27.89;19.14;100778.92;1726066;82;20257;-76
2021/05/22 09:30:34;;;;;;;;;;;;;;;27.75;19.21;100762.55;1740419;80;20304;-77
2021/05/22 09:33:00;;;;;;;;;;;;;;;27.67;19.58;100758.91;1735306;81;20233;-78
2021/05/22 09:35:26;;;;;;;;;;;;;;;27.58;19.89;100758.57;1726747;81;20263;-76
2021/05/22 09:38:00;;;;;;;;;;;;;;;27.48;20.01;100754.34;1719663;82;20304;-76
2021/05/22 09:40:28;;;;;;;;;;;;;;;27.38;20.12;100754.27;1727676;80;20238;-76
2021/05/22 09:42:54;;;;;;;;;;;;;;;27.28;20.74;100746.22;1716746;81;20255;-76
2021/05/22 09:45:28;;;;;;;;;;;;;;;27.24;20.97;100751.12;1730834;81;20237;-77
2021/05/22 09:47:57;;;;;;;;;;;;;;;27.20;21.16;100745.31;1733769;82;20281;-77
2021/05/22 09:50:29;;;;;;;;;;;;;;;27.18;20.93;100740.63;1735152;81;20158;-78
2021/05/22 09:52:56;;;;;;;;;;;;;;;27.15;20.98;100742.52;1734212;82;20144;-78
2021/05/22 09:55:23;;;;;;;;;;;;;;;27.05;20.69;100741.86;1735450;82;20547;-79
2021/05/22 09:57:53;;;;;;;;;;;;;;;27.04;21.27;100733.33;1734985;82;20269;-78
2021/05/22 10:00:26;;;;;;;;;;;;;;;27.00;22.07;100736.31;1734911;82;20229;-79
2021/05/22 10:03:01;;;;;;;;;;;;;;;26.98;22.19;100736.28;1735063;82;20555;-77
2021/05/22 10:05:35;;;;;;;;;;;;;;;26.97;22.41;100734.08;1734537;80;20344;-78
2021/05/22 10:08:04;;;;;;;;;;;;;;;26.94;22.22;100742.03;1733964;82;20301;-78
2021/05/22 10:10:41;;;;;;;;;;;;;;;26.87;22.46;100735.91;1734143;82;20253;-77
2021/05/22 10:13:09;;;;;;;;;;;;;;;26.75;22.43;100739.65;1729030;82;20257;-78
2021/05/22 10:15:35;;;;;;;;;;;;;;;26.64;22.23;100736.48;1735215;82;20269;-78
2021/05/22 10:18:03;;;;;;;;;;;;;;;26.50;22.19;100731.94;1735040;82;20752;-79
2021/05/22 10:20:30;;;;;;;;;;;;;;;26.40;22.71;100733.72;1736105;82;20332;-78
2021/05/22 10:22:56;;;;;;;;;;;;;;;26.34;22.92;100723.19;1735259;81;20193;-78
2021/05/22 10:25:22;;;;;;;;;;;;;;;26.32;23.38;100722.63;1735036;82;20253;-78
2021/05/22 10:27:48;;;;;;;;;;;;;;;26.31;23.64;100721.80;1734620;81;20289;-78
2021/05/22 10:30:16;;;;;;;;;;;;;;;26.27;23.80;100727.52;1734456;82;20333;-78
2021/05/22 10:32:43;;;;;;;;;;;;;;;26.25;24.09;100718.72;1733910;82;20246;-78
2021/05/22 10:35:11;;;;;;;;;;;;;;;26.24;24.13;100716.20;1734269;82;20249;-78
2021/05/22 10:37:47;;;;;;;;;;;;;;;26.24;24.45;100715.66;1732692;82;20250;-78
2021/05/22 10:40:14;;;;;;;;;;;;;;;26.29;24.80;100717.64;1737256;81;20186;-77
2021/05/22 10:42:45;;;;;;;;;;;;;;;26.31;24.82;100708.62;1739146;81;20244;-78
2021/05/22 10:45:32;;;;;;;;;;;;;;;26.29;24.34;100708.85;1718214;81;20684;-76
2021/05/22 10:47:59;;;;;;;;;;;;;;;26.28;24.32;100699.51;1705323;84;20276;-78
2021/05/22 10:50:43;;;;;;;;;;;;;;;26.27;24.50;100700.60;1683283;84;20232;-76
2021/05/22 10:53:30;;;;;;;;;;;;;;;26.27;24.44;100694.56;1729247;82;20166;-76
2021/05/22 10:56:04;;;;;;;;;;;;;;;26.27;24.74;100686.88;1734858;81;20818;-76
2021/05/22 10:58:31;;;;;;;;;;;;;;;26.26;25.04;100687.42;1717886;81;20460;-75
2021/05/22 11:01:28;;;;;;;;;;;;;;;26.26;25.06;100692.08;1734577;81;20209;-76
2021/05/22 11:04:12;;;;;;;;;;;;;;;26.21;25.51;100681.05;1711633;82;20206;-77
2021/05/22 11:06:47;;;;;;;;;;;;;;;26.16;26.13;100679.06;1735085;82;20142;-77
2021/05/22 11:09:35;;;;;;;;;;;;;;;26.16;25.96;100680.44;1744075;81;20207;-76
2021/05/22 11:12:03;;;;;;;;;;;;;;;26.16;26.07;100676.84;1710282;82;20273;-78
2021/05/22 11:14:48;;;;;;;;;;;;;;;26.06;25.96;100674.80;1716503;83;20637;-75
2021/05/22 11:17:28;;;;;;;;;;;;;;;25.97;25.66;100668.92;1715535;83;20269;-75
2021/05/22 11:20:09;;;;;;;;;;;;;;;25.90;26.03;100668.84;1720526;82;20206;-75
2021/05/22 11:22:45;;;;;;;;;;;;;;;25.85;25.93;100664.67;1734153;81;20230;-75
2021/05/22 11:25:13;;;;;;;;;;;;;;;25.84;26.29;100666.55;1713910;80;20187;-76
2021/05/22 11:27:52;;;;;;;;;;;;;;;25.84;26.26;100657.50;1688999;83;20162;-76
2021/05/22 11:30:18;;;;;;;;;;;;;;;25.84;25.63;100662.44;1727736;81;20224;-74
2021/05/22 11:33:08;;;;;;;;;;;;;;;25.84;26.13;100661.61;1749315;81;20626;-75
2021/05/22 11:35:44;;;;;;;;;;;;;;;25.82;26.15;100667.36;1690395;83;20248;-76
2021/05/22 11:38:21;;;;;;;;;;;;;;;25.75;26.49;100660.67;1732833;82;20185;-74
2021/05/22 11:40:51;;;;;;;;;;;;;;;25.64;27.12;100662.97;1743216;80;20218;-75
2021/05/22 11:43:28;;;;;;;;;;;;;;;25.62;26.84;100659.66;1743856;80;20558;-75
2021/05/22 11:46:05;;;;;;;;;;;;;;;25.64;26.78;100661.59;1743105;81;20177;-76
2021/05/22 11:48:47;;;;;;;;;;;;;;;25.73;26.81;100655.14;1743603;80;20581;-77
2021/05/22 11:51:28;;;;;;;;;;;;;;;25.68;27.33;100664.13;1743866;82;20237;-76
2021/05/22 11:54:00;;;;;;;;;;;;;;;25.62;27.12;100661.03;1742997;81;20281;-75
2021/05/22 11:56:26;;;;;;;;;;;;;;;25.58;27.73;100659.05;1744663;82;20206;-77
2021/05/22 11:58:54;;;;;;;;;;;;;;;25.55;27.04;100665.86;1743972;81;20198;-77
2021/05/22 12:01:23;;;;;;;;;;;;;;;25.54;26.64;100661.46;1722963;82;20241;-76
2021/05/22 12:03:50;;;;;;;;;;;;;;;25.54;27.13;100658.72;1740252;82;20201;-76
2021/05/22 12:06:28;;;;;;;;;;;;;;;25.51;27.29;100653.73;1743979;82;20253;-77
2021/05/22 12:09:20;;;;;;;;;;;;;;;25.49;27.22;100651.25;1737700;82;20573;-76
2021/05/22 12:11:57;;;;;;;;;;;;;;;25.45;27.11;100642.41;1714020;83;20209;-76
2021/05/22 12:14:24;;;;;;;;;;;;;;;25.42;28.01;100648.38;1732185;82;20425;-76
2021/05/22 12:17:00;;;;;;;;;;;;;;;25.39;27.28;100651.62;1735979;82;20273;-76
2021/05/22 12:19:27;;;;;;;;;;;;;;;25.35;27.09;100651.31;1741296;82;20149;-76
2021/05/22 12:21:53;;;;;;;;;;;;;;;25.32;25.76;100641.38;1696652;82;20241;-76
2021/05/22 12:24:20;;;;;;;;;;;;;;;25.26;24.52;100641.31;1741782;82;20313;-76
2021/05/22 12:26:51;;;;;;;;;;;;;;;25.23;24.35;100634.95;1742276;82;20189;-75
2021/05/22 12:29:17;;;;;;;;;;;;;;;25.23;23.29;100632.20;1742186;82;20277;-75
2021/05/22 12:31:48;;;;;;;;;;;;;;;25.22;22.15;100642.06;1742566;82;20679;-75
2021/05/22 12:34:14;;;;;;;;;;;;;;;25.18;22.27;100634.88;1742926;82;20230;-76
2021/05/22 12:36:53;;;;;;;;;;;;;;;25.16;22.97;100636.19;1742911;82;20233;-77
2021/05/22 12:39:19;;;;;;;;;;;;;;;25.13;23.88;100639.45;1742635;82;20254;-77
2021/05/22 12:41:47;;;;;;;;;;;;;;;25.10;24.19;100631.17;1742834;82;20284;-75
2021/05/22 12:44:20;;;;;;;;;;;;;;;25.10;24.44;100625.70;1742090;81;20293;-78
2021/05/22 12:46:55;;;;;;;;;;;;;;;25.14;24.81;100619.17;1743517;82;20238;-77
2021/05/22 12:49:21;;;;;;;;;;;;;;;25.16;25.27;100615.09;1741606;82;20585;-77